createdAt,value
2022-10-10T00:00:52.544Z,11.40
2022-10-10T00:03:22.011Z,11.30
2022-10-10T00:05:50.048Z,11.40
2022-10-10T00:08:18.125Z,11.40
2022-10-10T00:10:46.157Z,11.30
2022-10-10T00:13:14.261Z,11.30
2022-10-10T00:15:46.795Z,11.30
2022-10-10T00:18:17.642Z,11.30
2022-10-10T00:20:47.075Z,11.30
2022-10-10T00:23:15.127Z,11.30
2022-10-10T00:25:43.185Z,11.20
2022-10-10T00:28:12.493Z,11.20
2022-10-10T00:30:40.637Z,11.20
2022-10-10T00:33:08.924Z,11.20
2022-10-10T00:35:37.241Z,11.20
2022-10-10T00:38:06.717Z,11.10
2022-10-10T00:40:34.981Z,11.10
2022-10-10T00:43:03.311Z,11.20
2022-10-10T00:45:39.073Z,11.10
2022-10-10T00:48:10.572Z,11.10
2022-10-10T00:50:41.951Z,11.10
2022-10-10T00:53:14.311Z,11.10
2022-10-10T00:55:42.758Z,11.00
2022-10-10T00:58:11.757Z,11.00
2022-10-10T01:00:39.843Z,11.00
2022-10-10T01:03:08.015Z,11.00
2022-10-10T01:05:36.354Z,11.00
2022-10-10T01:08:07.034Z,11.00
2022-10-10T01:10:47.560Z,11.00
2022-10-10T01:13:27.970Z,10.90
2022-10-10T01:16:01.471Z,10.90
2022-10-10T01:18:36.885Z,10.90
2022-10-10T01:21:15.656Z,10.90
2022-10-10T01:24:02.759Z,10.90
2022-10-10T01:27:00.659Z,10.90
2022-10-10T01:29:33.313Z,10.80
2022-10-10T01:32:06.413Z,10.80
2022-10-10T01:34:42.433Z,10.80
2022-10-10T01:37:17.954Z,10.80
2022-10-10T01:39:56.370Z,10.80
2022-10-10T01:42:29.383Z,10.80
2022-10-10T01:44:59.063Z,10.80
2022-10-10T01:47:27.190Z,10.70
2022-10-10T01:49:59.572Z,10.70
2022-10-10T01:52:38.249Z,10.70
2022-10-10T01:55:22.992Z,10.70
2022-10-10T01:58:01.887Z,10.70
2022-10-10T02:00:37.086Z,10.60
2022-10-10T02:03:14.316Z,10.60
2022-10-10T02:05:47.697Z,10.60
2022-10-10T02:08:23.111Z,10.60
2022-10-10T02:10:55.731Z,10.60
2022-10-10T02:13:28.675Z,10.50
2022-10-10T02:16:00.778Z,10.50
2022-10-10T02:18:32.573Z,10.50
2022-10-10T02:21:02.986Z,10.50
2022-10-10T02:23:31.429Z,10.50
2022-10-10T02:25:59.559Z,10.50
2022-10-10T02:28:34.597Z,10.50
2022-10-10T02:31:07.930Z,10.50
2022-10-10T02:33:45.146Z,10.50
2022-10-10T02:36:15.508Z,10.50
2022-10-10T02:38:44.953Z,10.50
2022-10-10T02:41:17.453Z,10.50
2022-10-10T02:43:46.320Z,10.40
2022-10-10T02:46:16.282Z,10.40
2022-10-10T02:48:45.207Z,10.40
2022-10-10T02:51:16.128Z,10.40
2022-10-10T02:53:44.306Z,10.30
2022-10-10T02:56:12.897Z,10.30
2022-10-10T02:58:41.153Z,10.30
2022-10-10T03:01:10.563Z,10.30
2022-10-10T03:03:40.038Z,10.30
2022-10-10T03:06:08.894Z,10.30
2022-10-10T03:08:39.505Z,10.30
2022-10-10T03:11:08.149Z,10.30
2022-10-10T03:13:36.188Z,10.20
2022-10-10T03:16:04.540Z,10.20
2022-10-10T03:18:32.858Z,10.20
2022-10-10T03:21:02.290Z,10.20
2022-10-10T03:23:30.370Z,10.20
2022-10-10T03:25:58.450Z,10.20
2022-10-10T03:28:26.871Z,10.20
2022-10-10T03:30:55.343Z,10.10
2022-10-10T03:33:23.503Z,10.10
2022-10-10T03:35:51.603Z,10.10
2022-10-10T03:38:21.045Z,10.10
2022-10-10T03:40:49.082Z,10.10
2022-10-10T03:43:17.170Z,10.10
2022-10-10T03:45:47.651Z,10.00
2022-10-10T03:48:16.040Z,10.00
2022-10-10T03:50:44.479Z,10.00
2022-10-10T03:53:12.578Z,10.00
2022-10-10T03:55:42.852Z,10.00
2022-10-10T03:58:11.454Z,10.00
2022-10-10T04:00:39.906Z,10.00
2022-10-10T04:03:08.260Z,10.00
2022-10-10T04:05:36.903Z,10.00
2022-10-10T04:08:05.609Z,9.90
2022-10-10T04:10:34.013Z,9.90
2022-10-10T04:13:03.537Z,9.90
2022-10-10T04:15:32.645Z,9.90
2022-10-10T04:18:01.132Z,9.90
2022-10-10T04:20:29.259Z,9.90
2022-10-10T04:22:57.315Z,9.90
2022-10-10T04:25:25.581Z,9.90
2022-10-10T04:27:57.239Z,9.90
2022-10-10T04:30:32.613Z,9.90
2022-10-10T04:33:01.006Z,9.90
2022-10-10T04:35:29.077Z,9.90
2022-10-10T04:37:57.293Z,9.80
2022-10-10T04:40:26.754Z,9.80
2022-10-10T04:42:55.163Z,9.80
2022-10-10T04:45:26.546Z,9.80
2022-10-10T04:47:56.570Z,9.80
2022-10-10T04:50:25.109Z,9.80
2022-10-10T04:52:53.332Z,9.70
2022-10-10T04:55:21.743Z,9.70
2022-10-10T04:57:49.771Z,9.70
2022-10-10T05:00:17.884Z,9.70
2022-10-10T05:02:45.972Z,9.70
2022-10-10T05:05:15.584Z,9.70
2022-10-10T05:07:43.618Z,9.70
2022-10-10T05:10:11.698Z,9.70
2022-10-10T05:12:39.895Z,9.60
2022-10-10T05:15:08.880Z,9.60
2022-10-10T05:17:37.016Z,9.60
2022-10-10T05:20:06.096Z,9.60
2022-10-10T05:22:35.685Z,9.60
2022-10-10T05:25:03.781Z,9.60
2022-10-10T05:27:31.877Z,9.60
2022-10-10T05:30:00.093Z,9.60
2022-10-10T05:32:28.213Z,9.60
2022-10-10T05:34:56.264Z,9.60
2022-10-10T05:37:24.353Z,9.60
2022-10-10T05:39:54.772Z,9.60
2022-10-10T05:42:23.052Z,9.60
2022-10-10T05:44:51.103Z,9.70
2022-10-10T05:47:19.211Z,9.70
2022-10-10T05:49:47.249Z,9.70
2022-10-10T05:52:15.311Z,9.70
2022-10-10T05:54:43.440Z,9.80
2022-10-10T05:57:16.313Z,9.80
2022-10-10T05:59:44.738Z,9.80
2022-10-10T06:02:13.900Z,9.80
2022-10-10T06:04:42.078Z,9.80
2022-10-10T06:07:10.802Z,9.80
2022-10-10T06:09:38.938Z,9.90
2022-10-10T06:12:07.169Z,9.90
2022-10-10T06:14:36.759Z,9.90
2022-10-10T06:17:04.863Z,10.00
2022-10-10T06:19:33.122Z,10.00
2022-10-10T06:22:01.395Z,10.00
2022-10-10T06:24:29.834Z,10.00
2022-10-10T06:26:57.868Z,10.00
2022-10-10T06:29:26.202Z,10.10
2022-10-10T06:31:55.697Z,10.20
2022-10-10T06:34:23.862Z,10.20
2022-10-10T06:36:52.432Z,10.30
2022-10-10T06:39:20.516Z,10.40
2022-10-10T06:41:50.030Z,10.50
2022-10-10T06:44:18.845Z,10.50
2022-10-10T06:46:47.024Z,10.50
2022-10-10T06:49:16.531Z,10.60
2022-10-10T06:51:44.626Z,10.60
2022-10-10T06:54:12.798Z,10.60
2022-10-10T06:56:40.817Z,10.60
2022-10-10T06:59:09.084Z,10.60
2022-10-10T07:01:37.181Z,10.70
2022-10-10T07:04:06.080Z,10.70
2022-10-10T07:06:35.557Z,10.70
2022-10-10T07:09:03.630Z,10.70
2022-10-10T07:11:32.448Z,10.80
2022-10-10T07:14:00.477Z,10.80
2022-10-10T07:16:28.536Z,10.80
2022-10-10T07:18:56.727Z,10.80
2022-10-10T07:21:24.818Z,10.90
2022-10-10T07:23:54.356Z,10.90
2022-10-10T07:26:22.439Z,11.00
2022-10-10T07:28:50.598Z,11.00
2022-10-10T07:31:18.723Z,11.00
2022-10-10T07:33:50.442Z,11.10
2022-10-10T07:36:19.963Z,11.10
2022-10-10T07:38:51.960Z,11.20
2022-10-10T07:41:22.528Z,11.20
2022-10-10T07:43:55.267Z,11.20
2022-10-10T07:46:23.536Z,11.20
2022-10-10T07:48:51.757Z,11.20
2022-10-10T07:51:20.301Z,11.20
2022-10-10T07:53:48.368Z,11.30
2022-10-10T07:56:16.513Z,11.40
2022-10-10T07:58:47.878Z,11.50
2022-10-10T08:01:16.126Z,11.60
2022-10-10T08:03:44.386Z,11.60
2022-10-10T08:06:14.606Z,11.70
2022-10-10T08:08:50.741Z,11.80
2022-10-10T08:11:20.832Z,11.90
2022-10-10T08:13:51.092Z,12.00
2022-10-10T08:16:19.968Z,12.00
2022-10-10T08:18:48.271Z,12.10
2022-10-10T08:21:17.386Z,12.10
2022-10-10T08:23:46.105Z,12.20
2022-10-10T08:26:16.583Z,12.20
2022-10-10T08:28:47.427Z,12.20
2022-10-10T08:31:18.753Z,12.30
2022-10-10T08:33:47.861Z,12.40
2022-10-10T08:36:18.027Z,12.50
2022-10-10T08:38:47.257Z,12.50
2022-10-10T08:41:21.395Z,12.60
2022-10-10T08:43:53.552Z,12.70
2022-10-10T08:46:34.433Z,12.80
2022-10-10T08:49:14.206Z,12.80
2022-10-10T08:51:47.880Z,12.80
2022-10-10T08:54:18.566Z,12.80
2022-10-10T08:56:47.187Z,12.90
2022-10-10T08:59:22.007Z,12.90
2022-10-10T09:02:20.079Z,12.90
2022-10-10T09:04:41.320Z,12.90
2022-10-10T09:07:24.640Z,13.00
2022-10-10T09:10:02.536Z,13.00
2022-10-10T09:12:37.651Z,13.10
2022-10-10T09:15:15.382Z,13.10
2022-10-10T09:17:51.720Z,13.20
2022-10-10T09:20:32.048Z,13.20
2022-10-10T09:23:05.000Z,13.20
2022-10-10T09:25:36.991Z,13.30
2022-10-10T09:28:12.401Z,13.30
2022-10-10T09:30:45.530Z,13.40
2022-10-10T09:33:23.873Z,13.50
2022-10-10T09:35:54.669Z,13.60
2022-10-10T09:38:34.035Z,13.70
2022-10-10T09:41:07.087Z,13.80
2022-10-10T09:43:35.949Z,14.00
2022-10-10T09:46:04.103Z,14.00
2022-10-10T09:48:36.124Z,14.10
2022-10-10T09:51:06.949Z,14.20
2022-10-10T09:53:35.512Z,14.30
2022-10-10T09:56:06.609Z,14.40
2022-10-10T09:58:39.060Z,14.50
2022-10-10T10:01:18.525Z,14.70
2022-10-10T10:04:23.465Z,14.80
2022-10-10T10:07:06.963Z,15.10
2022-10-10T10:09:35.333Z,15.30
2022-10-10T10:12:05.502Z,15.40
2022-10-10T10:14:38.285Z,15.50
2022-10-10T10:17:08.986Z,15.60
2022-10-10T10:19:40.100Z,15.50
2022-10-10T10:22:26.773Z,15.50
2022-10-10T10:24:55.707Z,15.50
2022-10-10T10:27:26.248Z,15.50
2022-10-10T10:29:56.033Z,15.60
2022-10-10T10:32:38.090Z,15.60
2022-10-10T10:35:17.546Z,15.80
2022-10-10T10:37:58.388Z,15.80
2022-10-10T10:40:35.183Z,15.90
2022-10-10T10:43:24.632Z,16.00
2022-10-10T10:46:02.647Z,16.10
2022-10-10T10:48:40.365Z,16.10
2022-10-10T10:51:22.384Z,16.20
2022-10-10T10:53:58.356Z,16.10
2022-10-10T10:56:34.395Z,16.10
2022-10-10T11:00:22.245Z,16.00
2022-10-10T11:02:57.438Z,15.90
2022-10-10T11:05:42.014Z,15.80
2022-10-10T11:08:38.667Z,15.70
2022-10-10T11:11:20.325Z,15.70
2022-10-10T11:13:55.684Z,15.70
2022-10-10T11:19:25.551Z,15.80
2022-10-10T11:22:00.248Z,15.80
2022-10-10T11:24:42.448Z,15.80
2022-10-10T11:27:17.065Z,15.80
2022-10-10T11:29:57.643Z,15.90
2022-10-10T11:32:31.753Z,15.90
2022-10-10T11:35:09.912Z,15.90
2022-10-10T11:37:43.464Z,15.90
2022-10-10T11:40:27.104Z,16.00
2022-10-10T11:43:01.625Z,16.00
2022-10-10T11:45:35.543Z,16.00
2022-10-10T11:48:14.438Z,16.00
2022-10-10T11:50:44.556Z,16.00
2022-10-10T11:53:21.083Z,16.00
2022-10-10T11:55:58.110Z,16.10
2022-10-10T11:58:33.117Z,16.10
2022-10-10T12:01:06.849Z,16.20
2022-10-10T12:03:35.018Z,16.30
2022-10-10T12:06:09.670Z,16.30
2022-10-10T12:08:41.136Z,16.30
2022-10-10T12:11:17.385Z,16.30
2022-10-10T12:13:49.222Z,16.40
2022-10-10T12:16:20.741Z,16.40
2022-10-10T12:18:55.600Z,16.40
2022-10-10T12:21:26.144Z,16.50
2022-10-10T12:24:04.464Z,16.50
2022-10-10T12:27:08.969Z,16.60
2022-10-10T12:29:59.215Z,16.60
2022-10-10T12:32:28.873Z,16.70
2022-10-10T12:35:01.816Z,16.70
2022-10-10T12:37:34.317Z,16.70
2022-10-10T12:40:19.339Z,16.70
2022-10-10T12:43:06.351Z,16.80
2022-10-10T12:45:58.660Z,16.80
2022-10-10T12:48:27.417Z,16.80
2022-10-10T12:50:59.355Z,16.80
2022-10-10T12:53:29.412Z,16.80
2022-10-10T12:56:00.829Z,16.90
2022-10-10T12:58:31.462Z,16.90
2022-10-10T13:01:03.588Z,16.90
2022-10-10T13:03:35.482Z,17.00
2022-10-10T13:06:08.486Z,17.00
2022-10-10T13:08:38.637Z,17.00
2022-10-10T13:11:09.676Z,17.00
2022-10-10T13:13:37.817Z,17.00
2022-10-10T13:16:14.357Z,17.00
2022-10-10T13:18:49.470Z,17.00
2022-10-10T13:21:21.768Z,17.00
2022-10-10T13:26:45.069Z,17.10
2022-10-10T13:29:24.489Z,17.10
2022-10-10T13:31:56.495Z,17.10
2022-10-10T13:34:27.595Z,17.10
2022-10-10T13:36:58.590Z,17.10
2022-10-10T13:39:27.490Z,17.10
2022-10-10T13:41:56.505Z,17.10
2022-10-10T13:44:26.771Z,17.10
2022-10-10T13:46:56.225Z,17.10
2022-10-10T13:49:26.980Z,17.00
2022-10-10T13:52:06.869Z,17.00
2022-10-10T13:54:43.951Z,17.00
2022-10-10T13:57:17.647Z,17.10
2022-10-10T13:59:48.826Z,17.20
2022-10-10T14:02:25.369Z,17.30
2022-10-10T14:04:55.003Z,17.40
2022-10-10T14:07:25.827Z,17.40
2022-10-10T14:09:56.965Z,17.40
2022-10-10T14:12:31.123Z,17.50
2022-10-10T14:15:00.669Z,17.50
2022-10-10T14:17:31.096Z,17.40
2022-10-10T14:19:59.370Z,17.50
2022-10-10T14:22:27.693Z,17.50
2022-10-10T14:24:55.792Z,17.50
2022-10-10T14:27:26.415Z,17.50
2022-10-10T14:29:56.064Z,17.60
2022-10-10T14:32:24.666Z,17.60
2022-10-10T14:34:54.176Z,17.70
2022-10-10T14:37:26.596Z,17.70
2022-10-10T14:39:55.432Z,17.70
2022-10-10T14:42:24.993Z,17.70
2022-10-10T14:44:53.488Z,17.70
2022-10-10T14:47:23.825Z,17.70
2022-10-10T14:49:53.747Z,17.70
2022-10-10T14:52:22.415Z,17.70
2022-10-10T14:54:50.551Z,17.70
2022-10-10T14:57:19.538Z,17.70
2022-10-10T14:59:50.037Z,17.60
2022-10-10T15:02:20.438Z,17.60
2022-10-10T15:04:48.786Z,17.50
2022-10-10T15:07:19.202Z,17.50
2022-10-10T15:10:19.215Z,17.50
2022-10-10T15:12:39.235Z,17.40
2022-10-10T15:15:08.574Z,17.40
2022-10-10T15:17:37.033Z,17.40
2022-10-10T15:20:07.061Z,17.30
2022-10-10T15:22:37.286Z,17.30
2022-10-10T15:25:06.217Z,17.30
2022-10-10T15:27:34.325Z,17.30
2022-10-10T15:30:02.381Z,17.30
2022-10-10T15:32:30.484Z,17.30
2022-10-10T15:34:58.617Z,17.30
2022-10-10T15:37:27.706Z,17.20
2022-10-10T15:39:57.221Z,17.20
2022-10-10T15:42:25.347Z,17.20
2022-10-10T15:44:53.469Z,17.20
2022-10-10T15:47:22.406Z,17.10
2022-10-10T15:49:50.927Z,17.20
2022-10-10T15:52:19.954Z,17.10
2022-10-10T15:54:49.853Z,17.10
2022-10-10T15:57:19.673Z,17.10
2022-10-10T15:59:48.193Z,17.20
2022-10-10T16:02:17.340Z,17.10
2022-10-10T16:04:46.486Z,17.10
2022-10-10T16:07:34.677Z,17.00
2022-10-10T16:10:02.996Z,16.90
2022-10-10T16:12:32.482Z,16.80
2022-10-10T16:15:06.052Z,16.80
2022-10-10T16:17:35.145Z,16.70
2022-10-10T16:20:03.316Z,16.60
2022-10-10T16:22:31.370Z,16.60
2022-10-10T16:27:49.059Z,16.40
2022-10-10T16:30:17.631Z,16.40
2022-10-10T16:32:45.712Z,16.30
2022-10-10T16:35:13.797Z,16.30
2022-10-10T16:37:41.899Z,16.20
2022-10-10T16:40:10.934Z,16.20
2022-10-10T16:42:39.094Z,16.20
2022-10-10T16:45:09.954Z,16.10
2022-10-10T16:47:38.470Z,16.00
2022-10-10T16:50:07.523Z,16.00
2022-10-10T16:52:38.257Z,16.00
2022-10-10T16:55:07.897Z,15.90
2022-10-10T16:57:36.724Z,15.90
2022-10-10T17:00:05.813Z,15.90
2022-10-10T17:02:35.508Z,15.80
2022-10-10T17:05:03.565Z,15.80
2022-10-10T17:07:31.642Z,15.80
2022-10-10T17:09:59.676Z,15.70
2022-10-10T17:12:27.735Z,15.70
2022-10-10T17:14:55.839Z,15.70
2022-10-10T17:17:23.879Z,15.60
2022-10-10T17:19:53.374Z,15.60
2022-10-10T17:22:21.405Z,15.60
2022-10-10T17:24:49.646Z,15.60
2022-10-10T17:27:17.677Z,15.60
2022-10-10T17:29:45.752Z,15.50
2022-10-10T17:32:14.008Z,15.50
2022-10-10T17:34:42.048Z,15.50
2022-10-10T17:37:11.553Z,15.50
2022-10-10T17:39:39.867Z,15.40
2022-10-10T17:42:07.964Z,15.40
2022-10-10T17:44:43.244Z,15.40
2022-10-10T17:47:15.184Z,15.40
2022-10-10T17:49:46.573Z,15.40
2022-10-10T17:52:20.952Z,15.40
2022-10-10T17:54:49.568Z,15.30
2022-10-10T17:57:17.955Z,15.30
2022-10-10T17:59:46.083Z,15.30
2022-10-10T18:02:17.080Z,15.30
2022-10-10T18:04:45.948Z,15.30
2022-10-10T18:07:15.944Z,15.20
2022-10-10T18:09:44.165Z,15.20
2022-10-10T18:12:12.569Z,15.30
2022-10-10T18:14:40.650Z,15.20
2022-10-10T18:17:08.700Z,15.20
2022-10-10T18:19:36.737Z,15.20
2022-10-10T18:22:05.240Z,15.20
2022-10-10T18:24:34.743Z,15.10
2022-10-10T18:27:02.792Z,15.10
2022-10-10T18:29:30.907Z,15.10
2022-10-10T18:31:58.927Z,15.10
2022-10-10T18:34:27.015Z,15.00
2022-10-10T18:36:55.086Z,15.00
2022-10-10T18:39:23.153Z,15.00
2022-10-10T18:41:52.567Z,15.00
2022-10-10T18:44:20.696Z,15.00
2022-10-10T18:46:50.189Z,15.00
2022-10-10T18:49:18.953Z,15.00
2022-10-10T18:51:47.052Z,14.90
2022-10-10T18:54:17.636Z,14.90
2022-10-10T18:56:47.094Z,14.90
2022-10-10T18:59:18.647Z,14.90
2022-10-10T19:01:47.034Z,14.90
2022-10-10T19:04:16.650Z,14.80
2022-10-10T19:06:45.064Z,14.80
2022-10-10T19:09:15.190Z,14.80
2022-10-10T19:11:45.337Z,14.80
2022-10-10T19:14:15.859Z,14.80
2022-10-10T19:16:46.262Z,14.80
2022-10-10T19:19:16.745Z,14.80
2022-10-10T19:21:46.685Z,14.80
2022-10-10T19:24:19.531Z,14.80
2022-10-10T19:26:52.086Z,14.70
2022-10-10T19:29:20.927Z,14.70
2022-10-10T19:31:50.592Z,14.70
2022-10-10T19:34:18.697Z,14.70
2022-10-10T19:36:46.847Z,14.80
2022-10-10T19:39:15.281Z,14.80
2022-10-10T19:41:43.461Z,14.80
2022-10-10T19:44:11.673Z,14.80
2022-10-10T19:46:39.790Z,14.80
2022-10-10T19:49:11.091Z,14.80
2022-10-10T19:51:39.508Z,14.80
2022-10-10T19:54:07.581Z,14.80
2022-10-10T19:56:36.763Z,14.80
2022-10-10T19:59:05.804Z,14.80
2022-10-10T20:01:34.081Z,14.90
2022-10-10T20:04:02.251Z,14.90
2022-10-10T20:06:31.847Z,15.00
2022-10-10T20:08:59.945Z,15.00
2022-10-10T20:11:28.030Z,15.10
2022-10-10T20:13:57.400Z,15.10
2022-10-10T20:16:27.345Z,15.10
2022-10-10T20:18:56.339Z,15.10
2022-10-10T20:21:29.264Z,15.10
2022-10-10T20:23:58.904Z,15.20
2022-10-10T20:26:27.244Z,15.20
2022-10-10T20:28:57.274Z,15.20
2022-10-10T20:31:27.229Z,15.20
2022-10-10T20:33:58.328Z,15.20
2022-10-10T20:36:27.014Z,15.30
2022-10-10T20:38:56.014Z,15.30
2022-10-10T20:41:27.049Z,15.40
2022-10-10T20:43:59.201Z,15.40
2022-10-10T20:46:29.059Z,15.40
2022-10-10T20:48:58.123Z,15.40
2022-10-10T20:51:27.453Z,15.40
2022-10-10T20:53:57.642Z,15.40
2022-10-10T20:56:27.919Z,15.40
2022-10-10T20:58:56.148Z,15.40
2022-10-10T21:01:26.381Z,15.30
2022-10-10T21:03:55.220Z,15.30
2022-10-10T21:06:25.296Z,15.30
2022-10-10T21:08:54.280Z,15.40
2022-10-10T21:11:23.356Z,15.40
2022-10-10T21:13:56.426Z,15.40
2022-10-10T21:16:26.247Z,15.40
2022-10-10T21:18:57.862Z,15.40
2022-10-10T21:21:26.992Z,15.40
2022-10-10T21:23:56.561Z,15.40
2022-10-10T21:26:27.050Z,15.40
2022-10-10T21:28:57.740Z,15.50
2022-10-10T21:31:27.639Z,15.40
2022-10-10T21:33:56.045Z,15.50
2022-10-10T21:36:25.617Z,15.50
2022-10-10T21:38:53.789Z,15.40
2022-10-10T21:41:22.606Z,15.50
2022-10-10T21:43:52.967Z,15.40
2022-10-10T21:46:24.515Z,15.40
2022-10-10T21:48:53.448Z,15.40
2022-10-10T21:51:22.385Z,15.40
2022-10-10T21:53:51.586Z,15.40
2022-10-10T21:56:20.055Z,15.40
2022-10-10T21:58:48.212Z,15.40
2022-10-10T22:01:18.670Z,15.40
2022-10-10T22:03:50.386Z,15.40
2022-10-10T22:06:20.441Z,15.40
2022-10-10T22:08:49.890Z,15.40
2022-10-10T22:11:20.925Z,15.30
2022-10-10T22:13:49.046Z,15.30
2022-10-10T22:16:17.586Z,15.30
2022-10-10T22:18:47.117Z,15.20
2022-10-10T22:21:17.397Z,15.10
2022-10-10T22:23:46.035Z,15.10
2022-10-10T22:26:15.837Z,15.00
2022-10-10T22:28:44.247Z,15.00
2022-10-10T22:31:16.265Z,14.90
2022-10-10T22:33:44.548Z,14.90
2022-10-10T22:36:14.223Z,14.90
2022-10-10T22:38:43.854Z,14.80
2022-10-10T22:41:13.088Z,14.80
2022-10-10T22:43:41.461Z,14.80
2022-10-10T22:46:09.986Z,14.80
2022-10-10T22:48:38.211Z,14.80
2022-10-10T22:51:08.869Z,14.70
2022-10-10T22:53:39.994Z,14.70
2022-10-10T22:56:08.851Z,14.70
2022-10-10T22:58:37.091Z,14.60
2022-10-10T23:01:05.881Z,14.60
2022-10-10T23:03:34.260Z,14.50
2022-10-10T23:06:02.939Z,14.50
2022-10-10T23:08:31.534Z,14.40
2022-10-10T23:11:01.180Z,14.40
2022-10-10T23:13:29.833Z,14.30
2022-10-10T23:15:58.042Z,14.30
2022-10-10T23:18:26.153Z,14.30
2022-10-10T23:20:54.181Z,14.30
2022-10-10T23:23:22.489Z,14.20
2022-10-10T23:25:50.720Z,14.20
2022-10-10T23:28:20.427Z,14.10
2022-10-10T23:30:49.457Z,14.10
2022-10-10T23:33:18.293Z,14.00
2022-10-10T23:35:56.764Z,14.00
2022-10-10T23:38:24.817Z,13.90
2022-10-10T23:40:52.954Z,13.90
2022-10-10T23:43:22.489Z,13.80
2022-10-10T23:45:51.171Z,13.80
2022-10-10T23:48:19.704Z,13.80
2022-10-10T23:50:47.723Z,13.70
2022-10-10T23:53:15.852Z,13.70
2022-10-10T23:55:43.884Z,13.60
2022-10-10T23:58:11.900Z,13.60
